Kezdőlap
METAR-TAF:

METAR-TAF

Repülőterek :

Princess Juliana nemzetközi repülőtér

Sint Maarten, Holland Antillák

földrajzi szélesség: 18-03N, földrajzi hosszúság: 063-07W, magasság: 4 m

Jelenlegi meteorológiai megfigyelések

A jelentés 40 perccel ezelõtt készült, 09:00 UTC
Kelet-északkeleti szél 10 kt
Hőmérséklet 26°C
Páratartalom 84%
Légköri nyomás 1015 hPa
Látótávolság 10 km, vagy több
Szórványos felhőzet 1700 lábon
enyhe záporok

METAR: TNCM 090900Z 06010KT 9999 -SHRA SCT017 26/23 Q1015

Idő: 05:40 (09:40 UTC)

Előrejelzés

A jelentés 4 órával és 8 perccel ezelõtt készült, 05:32 UTC
Az előrejelzés 09-én 06 óra UTC és 10-én 06 óra UTC között érvényes
Kelet-északkeleti szél 10 kt
Látótávolság: 10 km
Szórványos felhőzet 2000 lábon
Záporok a közelben

TAF: TNCM 090532Z 0906/1006 06010KT P6SM VCSH SCT020

Meteorológiai megfigyelések és előrejelzések több, mint 4000 repülőtéren (METAR és TAF jelentéseket).

A térképen piros és sárga pontok jelzik az elérhető meteorológiai állomásokat.

Mozgassa az egeret a pont fölött, hogy megjelenjen az állomás neve.

Azután kattintson az időjárási megfigyelések és előrejelzések megtekintéséhez.

A térkép megváltoztatása: kattintson a fekete keresztel jelölt zöld gombra ráközelítéshez, a vonallal jelölt zöld gombra távolításhoz, vagy a zöld nyilakra a szomszédos térképek eléréséhez.


METAR-TAF: